createdAt,value
2023-04-25T00:00:07.704Z,10.26
2023-04-25T00:03:14.865Z,10.31
2023-04-25T00:06:20.163Z,10.24
2023-04-25T00:09:21.531Z,10.27
2023-04-25T00:12:23.759Z,10.30
2023-04-25T00:15:25.347Z,10.28
2023-04-25T00:18:29.868Z,10.29
2023-04-25T00:21:32.576Z,10.10
2023-04-25T00:24:34.054Z,10.10
2023-04-25T00:27:35.521Z,10.13
2023-04-25T00:30:37.009Z,10.18
2023-04-25T00:33:38.441Z,10.11
2023-04-25T00:36:39.956Z,10.21
2023-04-25T00:39:41.339Z,10.13
2023-04-25T00:42:43.277Z,10.06
2023-04-25T00:45:44.679Z,10.09
2023-04-25T00:48:46.391Z,10.02
2023-04-25T00:51:48.030Z,10.06
2023-04-25T00:54:49.621Z,10.07
2023-04-25T00:57:51.280Z,10.01
2023-04-25T01:00:53.421Z,9.99
2023-04-25T01:03:55.892Z,10.04
2023-04-25T01:06:58.850Z,10.02
2023-04-25T01:10:00.462Z,10.01
2023-04-25T01:13:02.049Z,9.96
2023-04-25T01:16:05.076Z,10.00
2023-04-25T01:19:14.570Z,10.03
2023-04-25T01:22:16.017Z,10.07
2023-04-25T01:25:18.051Z,10.11
2023-04-25T01:28:20.168Z,10.06
2023-04-25T01:31:22.021Z,10.05
2023-04-25T01:34:23.560Z,10.02
2023-04-25T01:37:24.981Z,10.06
2023-04-25T01:40:28.374Z,10.00
2023-04-25T01:43:29.847Z,9.99
2023-04-25T01:46:31.697Z,9.96
2023-04-25T01:49:33.233Z,9.86
2023-04-25T01:52:34.821Z,9.81
2023-04-25T01:55:36.915Z,9.79
2023-04-25T01:58:45.504Z,9.74
2023-04-25T02:02:20.144Z,9.69
2023-04-25T02:05:21.890Z,9.65
2023-04-25T02:08:23.612Z,9.60
2023-04-25T02:11:25.121Z,9.66
2023-04-25T02:14:45.402Z,9.62
2023-04-25T02:17:53.576Z,9.56
2023-04-25T02:20:55.194Z,9.42
2023-04-25T02:23:56.683Z,9.42
2023-04-25T02:26:58.168Z,9.34
2023-04-25T02:29:59.626Z,9.32
2023-04-25T02:33:01.081Z,9.41
2023-04-25T02:36:02.570Z,9.40
2023-04-25T02:39:04.112Z,9.42
2023-04-25T02:42:05.660Z,9.42
2023-04-25T02:45:07.536Z,9.40
2023-04-25T02:48:09.789Z,9.38
2023-04-25T02:51:11.241Z,9.37
2023-04-25T02:54:12.751Z,9.26
2023-04-25T02:57:18.583Z,9.22
2023-04-25T03:00:20.248Z,9.29
2023-04-25T03:03:24.775Z,9.25
2023-04-25T03:06:26.984Z,9.09
2023-04-25T03:09:28.437Z,9.07
2023-04-25T03:12:29.924Z,9.07
2023-04-25T03:15:32.120Z,9.16
2023-04-25T03:18:33.552Z,9.14
2023-04-25T03:21:36.056Z,9.36
2023-04-25T03:24:38.168Z,9.25
2023-04-25T03:27:39.570Z,9.31
2023-04-25T03:30:41.282Z,9.31
2023-04-25T03:33:43.084Z,9.36
2023-04-25T03:36:44.874Z,9.40
2023-04-25T03:39:46.515Z,9.41
2023-04-25T03:42:48.133Z,9.42
2023-04-25T03:45:49.649Z,9.40
2023-04-25T03:48:54.470Z,9.36
2023-04-25T03:52:01.173Z,9.39
2023-04-25T03:55:06.227Z,9.45
2023-04-25T03:58:09.096Z,9.44
2023-04-25T04:01:11.180Z,9.29
2023-04-25T04:04:14.660Z,9.20
2023-04-25T04:07:16.414Z,9.15
2023-04-25T04:10:22.561Z,9.12
2023-04-25T04:13:24.078Z,9.19
2023-04-25T04:16:25.984Z,9.19
2023-04-25T04:19:27.686Z,9.26
2023-04-25T04:22:39.208Z,9.31
2023-04-25T04:25:44.957Z,9.34
2023-04-25T04:29:12.682Z,9.38
2023-04-25T04:32:37.437Z,9.42
2023-04-25T04:35:39.544Z,9.42
2023-04-25T04:38:42.130Z,9.26
2023-04-25T04:41:46.319Z,9.22
2023-04-25T04:45:04.691Z,9.21
2023-04-25T04:48:35.734Z,9.17
2023-04-25T04:51:59.535Z,9.25
2023-04-25T04:55:28.980Z,9.35
2023-04-25T04:58:50.112Z,9.37
2023-04-25T05:02:14.440Z,9.38
2023-04-25T05:05:40.946Z,9.40
2023-04-25T05:09:02.676Z,9.51
2023-04-25T05:12:16.378Z,9.52
2023-04-25T05:15:36.387Z,9.54
2023-04-25T05:18:55.650Z,9.49
2023-04-25T05:22:08.515Z,9.46
2023-04-25T05:25:17.207Z,9.50
2023-04-25T05:28:32.537Z,9.52
2023-04-25T05:31:45.953Z,9.48
2023-04-25T05:34:50.983Z,9.49
2023-04-25T05:38:07.404Z,9.53
2023-04-25T05:41:31.479Z,9.53
2023-04-25T05:44:36.745Z,9.61
2023-04-25T05:48:10.804Z,9.71
2023-04-25T05:51:33.377Z,9.69
2023-04-25T05:54:47.325Z,9.63
2023-04-25T05:57:51.587Z,9.50
2023-04-25T06:00:53.363Z,9.44
2023-04-25T06:03:56.981Z,9.49
2023-04-25T06:06:59.057Z,9.54
2023-04-25T06:10:02.363Z,9.54
2023-04-25T06:13:05.154Z,9.59
2023-04-25T06:16:09.309Z,9.50
2023-04-25T06:19:12.218Z,9.40
2023-04-25T06:22:13.718Z,9.42
2023-04-25T06:25:16.824Z,9.40
2023-04-25T06:28:20.115Z,9.37
2023-04-25T06:31:21.609Z,9.43
2023-04-25T06:34:24.987Z,9.63
2023-04-25T06:37:26.722Z,9.58
2023-04-25T06:40:28.993Z,9.69
2023-04-25T06:43:33.984Z,9.74
2023-04-25T06:46:51.944Z,9.79
2023-04-25T06:49:55.451Z,9.82
2023-04-25T06:52:57.221Z,9.70
2023-04-25T06:55:59.664Z,9.67
2023-04-25T06:59:14.873Z,9.49
2023-04-25T07:02:22.110Z,9.42
2023-04-25T07:05:26.228Z,9.45
2023-04-25T07:08:30.579Z,9.46
2023-04-25T07:11:33.371Z,9.50
2023-04-25T07:14:34.845Z,9.53
2023-04-25T07:17:38.732Z,9.76
2023-04-25T07:20:42.576Z,10.04
2023-04-25T07:23:44.761Z,10.11
2023-04-25T07:26:52.871Z,9.96
2023-04-25T07:30:01.229Z,9.85
2023-04-25T07:33:03.880Z,9.89
2023-04-25T07:36:05.897Z,9.79
2023-04-25T07:39:07.786Z,9.44
2023-04-25T07:42:09.566Z,9.43
2023-04-25T07:45:14.582Z,9.42
2023-04-25T07:48:22.254Z,9.42
2023-04-25T07:51:26.895Z,9.15
2023-04-25T07:54:34.257Z,8.91
2023-04-25T07:57:44.367Z,8.74
2023-04-25T08:00:47.084Z,8.74
2023-04-25T08:04:07.399Z,8.86
2023-04-25T08:07:22.439Z,8.88
2023-04-25T08:10:27.596Z,8.94
2023-04-25T08:13:29.665Z,8.97
2023-04-25T08:16:33.882Z,8.87
2023-04-25T08:19:37.028Z,8.86
2023-04-25T08:22:38.817Z,9.01
2023-04-25T08:25:54.705Z,9.02
2023-04-25T08:29:01.598Z,9.00
2023-04-25T08:32:04.873Z,9.10
2023-04-25T08:35:08.988Z,9.09
2023-04-25T08:38:10.734Z,9.04
2023-04-25T08:41:12.312Z,9.16
2023-04-25T08:44:15.578Z,9.34
2023-04-25T08:47:23.306Z,9.43
2023-04-25T08:50:31.165Z,9.54
2023-04-25T08:53:36.188Z,9.62
2023-04-25T08:56:42.354Z,9.66
2023-04-25T08:59:46.770Z,9.76
2023-04-25T09:02:49.493Z,9.94
2023-04-25T09:05:52.243Z,10.05
2023-04-25T09:08:57.273Z,10.03
2023-04-25T09:12:01.314Z,10.00
2023-04-25T09:15:09.352Z,9.98
2023-04-25T09:18:31.503Z,10.13
2023-04-25T09:21:35.887Z,10.11
2023-04-25T09:24:40.885Z,10.23
2023-04-25T09:27:54.436Z,10.29
2023-04-25T09:31:02.316Z,10.27
2023-04-25T09:34:16.566Z,10.42
2023-04-25T09:37:30.806Z,10.47
2023-04-25T09:40:53.030Z,10.66
2023-04-25T09:44:06.929Z,10.84
2023-04-25T09:47:17.311Z,10.78
2023-04-25T09:50:25.540Z,10.95
2023-04-25T09:53:40.023Z,11.10
2023-04-25T09:57:09.267Z,11.37
2023-04-25T10:00:14.010Z,11.24
2023-04-25T10:03:18.691Z,11.37
2023-04-25T10:06:35.659Z,11.42
2023-04-25T10:09:40.455Z,11.32
2023-04-25T10:12:44.399Z,11.36
2023-04-25T10:15:46.847Z,11.56
2023-04-25T10:18:49.212Z,11.46
2023-04-25T10:22:05.674Z,11.23
2023-04-25T10:25:10.340Z,11.38
2023-04-25T10:28:11.825Z,11.41
2023-04-25T10:31:17.340Z,11.17
2023-04-25T10:34:20.457Z,11.15
2023-04-25T10:37:21.889Z,11.23
2023-04-25T10:40:24.063Z,11.30
2023-04-25T10:43:31.821Z,11.31
2023-04-25T10:46:34.973Z,11.09
2023-04-25T10:49:41.886Z,11.03
2023-04-25T10:52:43.459Z,11.12
2023-04-25T10:55:52.722Z,11.04
2023-04-25T10:59:10.784Z,11.15
2023-04-25T11:02:14.878Z,11.32
2023-04-25T11:05:50.992Z,11.54
2023-04-25T11:09:02.984Z,11.69
2023-04-25T11:12:05.988Z,11.89
2023-04-25T11:15:08.839Z,12.16
2023-04-25T11:18:10.962Z,11.84
2023-04-25T11:21:12.936Z,11.66
2023-04-25T11:24:14.426Z,11.65
2023-04-25T11:27:15.840Z,11.78
2023-04-25T11:30:18.027Z,11.84
2023-04-25T11:33:25.909Z,11.74
2023-04-25T11:36:27.910Z,11.45
2023-04-25T11:39:29.900Z,11.52
2023-04-25T11:42:31.303Z,11.62
2023-04-25T11:45:32.781Z,11.83
2023-04-25T11:48:39.634Z,11.85
2023-04-25T11:51:46.658Z,11.93
2023-04-25T11:54:48.233Z,11.67
2023-04-25T11:57:53.653Z,11.62
2023-04-25T12:00:55.184Z,11.81
2023-04-25T12:04:11.174Z,11.76
2023-04-25T12:07:13.866Z,11.77
2023-04-25T12:10:17.891Z,11.80
2023-04-25T12:13:25.715Z,12.13
2023-04-25T12:16:29.017Z,12.05
2023-04-25T12:19:41.122Z,11.87
2023-04-25T12:22:47.565Z,11.68
2023-04-25T12:25:49.162Z,11.45
2023-04-25T12:28:51.033Z,11.34
2023-04-25T12:31:54.000Z,11.65
2023-04-25T12:34:55.553Z,11.82
2023-04-25T12:37:58.727Z,11.98
2023-04-25T12:41:01.772Z,11.94
2023-04-25T12:44:04.645Z,12.02
2023-04-25T12:47:06.715Z,11.84
2023-04-25T12:50:10.940Z,11.89
2023-04-25T12:53:14.279Z,12.00
2023-04-25T12:56:15.900Z,12.49
2023-04-25T12:59:17.545Z,12.77
2023-04-25T13:02:20.887Z,12.87
2023-04-25T13:05:22.757Z,12.74
2023-04-25T13:08:24.287Z,12.55
2023-04-25T13:11:25.815Z,12.36
2023-04-25T13:14:28.944Z,12.53
2023-04-25T13:17:31.218Z,12.57
2023-04-25T13:20:34.265Z,12.73
2023-04-25T13:23:35.899Z,12.62
2023-04-25T13:26:37.461Z,12.58
2023-04-25T13:29:41.222Z,12.54
2023-04-25T13:32:42.863Z,12.39
2023-04-25T13:35:44.400Z,12.69
2023-04-25T13:38:48.175Z,12.86
2023-04-25T13:41:50.018Z,12.72
2023-04-25T13:44:51.508Z,12.69
2023-04-25T13:47:54.581Z,12.83
2023-04-25T13:50:55.998Z,13.15
2023-04-25T13:53:57.867Z,13.27
2023-04-25T13:57:00.056Z,12.78
2023-04-25T14:00:07.960Z,12.94
2023-04-25T14:03:11.045Z,12.90
2023-04-25T14:06:13.509Z,12.52
2023-04-25T14:09:16.371Z,12.49
2023-04-25T14:12:18.506Z,12.58
2023-04-25T14:15:19.977Z,12.43
2023-04-25T14:18:21.944Z,12.42
2023-04-25T14:21:23.718Z,12.49
2023-04-25T14:24:26.081Z,12.52
2023-04-25T14:27:29.147Z,12.63
2023-04-25T14:30:30.821Z,12.56
2023-04-25T14:33:32.260Z,12.40
2023-04-25T14:36:34.474Z,12.36
2023-04-25T14:39:38.407Z,12.24
2023-04-25T14:42:43.183Z,12.29
2023-04-25T14:45:44.642Z,12.19
2023-04-25T14:48:46.587Z,12.08
2023-04-25T14:51:49.686Z,12.20
2023-04-25T14:54:52.197Z,12.33
2023-04-25T14:57:57.537Z,12.29
2023-04-25T15:01:00.003Z,12.26
2023-04-25T15:04:03.619Z,12.32
2023-04-25T15:07:05.635Z,12.19
2023-04-25T15:10:14.179Z,12.12
2023-04-25T15:13:16.337Z,12.11
2023-04-25T15:16:18.787Z,12.18
2023-04-25T15:19:20.234Z,12.08
2023-04-25T15:22:22.256Z,12.12
2023-04-25T15:25:23.961Z,12.07
2023-04-25T15:28:25.552Z,11.99
2023-04-25T15:31:27.461Z,12.12
2023-04-25T15:34:28.896Z,12.12
2023-04-25T15:37:31.281Z,12.14
2023-04-25T15:40:32.673Z,12.21
2023-04-25T15:43:38.147Z,12.16
2023-04-25T15:46:39.858Z,12.33
2023-04-25T15:49:41.540Z,12.30
2023-04-25T15:52:43.582Z,12.26
2023-04-25T15:55:45.026Z,12.20
2023-04-25T15:58:46.480Z,12.02
2023-04-25T16:01:48.422Z,12.17
2023-04-25T16:04:50.319Z,12.10
2023-04-25T16:07:53.789Z,12.10
2023-04-25T16:10:56.014Z,12.19
2023-04-25T16:13:57.531Z,12.06
2023-04-25T16:17:01.747Z,12.04
2023-04-25T16:20:10.223Z,11.89
2023-04-25T16:23:12.660Z,11.92
2023-04-25T16:26:14.053Z,11.91
2023-04-25T16:29:17.513Z,11.89
2023-04-25T16:32:21.016Z,11.84
2023-04-25T16:35:23.009Z,11.69
2023-04-25T16:38:24.394Z,11.71
2023-04-25T16:41:26.078Z,11.68
2023-04-25T16:44:27.456Z,11.72
2023-04-25T16:47:28.926Z,11.72
2023-04-25T16:50:30.409Z,11.78
2023-04-25T16:53:32.636Z,11.81
2023-04-25T16:56:34.059Z,11.84
2023-04-25T16:59:35.488Z,11.75
2023-04-25T17:02:37.100Z,11.76
2023-04-25T17:05:38.824Z,11.87
2023-04-25T17:08:40.821Z,11.94
2023-04-25T17:11:42.286Z,11.88
2023-04-25T17:14:46.488Z,11.86
2023-04-25T17:17:48.317Z,11.71
2023-04-25T17:20:49.786Z,11.58
2023-04-25T17:23:51.150Z,11.63
2023-04-25T17:26:54.624Z,11.68
2023-04-25T17:29:56.446Z,11.78
2023-04-25T17:32:58.923Z,11.64
2023-04-25T17:36:00.443Z,11.55
2023-04-25T17:39:01.811Z,11.35
2023-04-25T17:42:04.155Z,11.24
2023-04-25T17:45:07.726Z,11.23
2023-04-25T17:48:09.293Z,11.09
2023-04-25T17:51:10.795Z,10.98
2023-04-25T17:54:12.271Z,10.90
2023-04-25T17:57:13.950Z,10.80
2023-04-25T18:00:16.152Z,10.75
2023-04-25T18:03:17.746Z,10.71
2023-04-25T18:06:19.238Z,10.63
2023-04-25T18:09:23.587Z,10.60
2023-04-25T18:12:28.030Z,10.59
2023-04-25T18:15:30.016Z,10.61
2023-04-25T18:18:35.578Z,10.65
2023-04-25T18:21:43.543Z,10.56
2023-04-25T18:24:45.987Z,10.54
2023-04-25T18:27:47.381Z,10.56
2023-04-25T18:30:50.205Z,10.57
2023-04-25T18:33:52.291Z,10.58
2023-04-25T18:36:55.499Z,10.53
2023-04-25T18:39:58.691Z,10.52
2023-04-25T18:43:00.226Z,10.58
2023-04-25T18:46:01.886Z,10.53
2023-04-25T18:49:03.819Z,10.61
2023-04-25T18:52:08.429Z,10.53
2023-04-25T18:55:10.185Z,10.42
2023-04-25T18:58:12.330Z,10.40
2023-04-25T19:01:14.028Z,10.40
2023-04-25T19:04:15.557Z,10.24
2023-04-25T19:07:17.173Z,10.18
2023-04-25T19:10:19.116Z,10.17
2023-04-25T19:13:22.201Z,10.23
2023-04-25T19:16:25.951Z,10.18
2023-04-25T19:19:28.085Z,10.16
2023-04-25T19:22:30.521Z,10.16
2023-04-25T19:25:32.078Z,10.13
2023-04-25T19:28:33.682Z,10.11
2023-04-25T19:31:37.528Z,10.07
2023-04-25T19:34:39.105Z,10.05
2023-04-25T19:37:46.084Z,10.06
2023-04-25T19:40:48.732Z,10.10
2023-04-25T19:43:51.213Z,10.06
2023-04-25T19:46:53.077Z,9.98
2023-04-25T19:49:54.531Z,9.88
2023-04-25T19:52:56.773Z,9.81
2023-04-25T19:55:58.184Z,9.78
2023-04-25T19:58:59.735Z,9.74
2023-04-25T20:02:01.870Z,9.80
2023-04-25T20:05:06.832Z,9.85
2023-04-25T20:08:08.501Z,9.87
2023-04-25T20:11:10.229Z,9.80
2023-04-25T20:14:11.652Z,9.87
2023-04-25T20:17:13.358Z,9.90
2023-04-25T20:20:14.748Z,9.92
2023-04-25T20:23:16.250Z,9.95
2023-04-25T20:26:17.656Z,9.86
2023-04-25T20:29:19.055Z,9.88
2023-04-25T20:32:20.475Z,9.82
2023-04-25T20:35:22.986Z,9.77
2023-04-25T20:38:25.081Z,9.69
2023-04-25T20:41:27.139Z,9.73
2023-04-25T20:44:28.686Z,9.75
2023-04-25T20:47:30.137Z,9.81
2023-04-25T20:50:33.283Z,9.81
2023-04-25T20:53:34.864Z,9.74
2023-04-25T20:56:36.476Z,9.72
2023-04-25T20:59:38.030Z,9.83
2023-04-25T21:02:40.263Z,9.89
2023-04-25T21:05:41.902Z,9.94
2023-04-25T21:08:43.629Z,9.82
2023-04-25T21:11:46.115Z,9.73
2023-04-25T21:14:47.587Z,9.76
2023-04-25T21:17:50.510Z,9.77
2023-04-25T21:20:52.399Z,9.69
2023-04-25T21:23:54.252Z,9.58
2023-04-25T21:26:56.088Z,9.58
2023-04-25T21:29:57.486Z,9.46
2023-04-25T21:32:58.973Z,9.39
2023-04-25T21:36:01.063Z,9.40
2023-04-25T21:39:02.550Z,9.39
2023-04-25T21:42:07.213Z,9.35
2023-04-25T21:45:09.970Z,9.36
2023-04-25T21:48:11.640Z,9.37
2023-04-25T21:51:13.074Z,9.37
2023-04-25T21:54:14.515Z,9.36
2023-04-25T21:57:16.684Z,9.29
2023-04-25T22:00:21.997Z,9.24
2023-04-25T22:03:23.576Z,9.19
2023-04-25T22:06:25.034Z,9.22
2023-04-25T22:09:27.036Z,9.28
2023-04-25T22:12:28.515Z,9.32
2023-04-25T22:15:30.001Z,9.35
2023-04-25T22:18:31.445Z,9.29
2023-04-25T22:21:32.930Z,9.19
2023-04-25T22:24:34.316Z,9.09
2023-04-25T22:27:35.831Z,8.95
2023-04-25T22:30:37.794Z,8.89
2023-04-25T22:33:39.227Z,8.87
2023-04-25T22:36:40.646Z,8.81
2023-04-25T22:39:42.009Z,8.79
2023-04-25T22:42:44.092Z,8.79
2023-04-25T22:45:45.541Z,8.81
2023-04-25T22:48:48.127Z,8.85
2023-04-25T22:51:54.008Z,8.89
2023-04-25T22:54:56.230Z,8.80
2023-04-25T22:57:57.645Z,8.76
2023-04-25T23:01:00.686Z,8.69
2023-04-25T23:04:02.243Z,8.59
2023-04-25T23:07:03.764Z,8.51
2023-04-25T23:10:07.438Z,8.47
2023-04-25T23:13:08.843Z,8.35
2023-04-25T23:16:10.884Z,8.29
2023-04-25T23:19:12.660Z,8.17
2023-04-25T23:22:14.291Z,8.13
2023-04-25T23:25:16.391Z,8.06
2023-04-25T23:28:17.770Z,7.93
2023-04-25T23:31:19.251Z,7.85
2023-04-25T23:34:21.423Z,7.73
2023-04-25T23:37:23.075Z,7.63
2023-04-25T23:40:24.571Z,7.48
2023-04-25T23:43:26.039Z,7.38
2023-04-25T23:46:28.836Z,7.33
2023-04-25T23:49:30.274Z,7.24
2023-04-25T23:52:31.760Z,7.15
2023-04-25T23:55:33.264Z,7.00
2023-04-25T23:58:34.700Z,6.86
